Time;durP1;ratioP1;P1;durP2;ratioP2;P2;SDS_P1;SDS_P2;PMS_P1;PMS_P2;Temp;Humidity;BMP_temperature;BMP_pressure;BME280_temperature;BME280_humidity;BME280_pressure;Samples;Min_cycle;Max_cycle;Signal;HPM_P1;HPM_P2
2022/09/28 00:00:32;;;;;;;1.20;1.20;;;;;;;;;;5014210;28;20232;-55
2022/09/28 00:02:58;;;;;;;1.00;1.00;;;;;;;;;;5008842;28;20654;-56
2022/09/28 00:05:25;;;;;;;1.20;1.20;;;;;;;;;;4995491;28;20221;-55
2022/09/28 00:07:53;;;;;;;1.00;1.00;;;;;;;;;;5010737;28;20351;-55
2022/09/28 00:10:21;;;;;;;1.00;1.00;;;;;;;;;;5011610;28;20862;-55
2022/09/28 00:12:47;;;;;;;1.20;1.20;;;;;;;;;;5023932;28;20325;-55
2022/09/28 00:15:13;;;;;;;1.00;1.00;;;;;;;;;;5018111;28;20620;-55
2022/09/28 00:17:39;;;;;;;1.10;1.10;;;;;;;;;;5018940;28;20215;-55
2022/09/28 00:20:05;;;;;;;1.30;1.30;;;;;;;;;;5025047;28;20232;-56
2022/09/28 00:22:31;;;;;;;1.10;1.10;;;;;;;;;;5013659;28;20284;-55
2022/09/28 00:24:57;;;;;;;1.10;1.10;;;;;;;;;;5008075;28;20224;-56
2022/09/28 00:27:23;;;;;;;1.00;1.00;;;;;;;;;;5008279;28;20887;-56
2022/09/28 00:29:49;;;;;;;1.00;1.00;;;;;;;;;;4996229;28;20350;-55
2022/09/28 00:32:15;;;;;;;1.00;1.00;;;;;;;;;;5003738;28;20656;-56
2022/09/28 00:34:44;;;;;;;1.13;1.13;;;;;;;;;;4998453;28;20242;-56
2022/09/28 00:37:10;;;;;;;1.10;1.10;;;;;;;;;;4976667;28;20263;-55
2022/09/28 00:39:37;;;;;;;1.10;1.10;;;;;;;;;;4970551;28;20273;-55
2022/09/28 00:42:04;;;;;;;1.20;1.20;;;;;;;;;;5005001;28;20314;-56
2022/09/28 00:44:59;;;;;;;1.00;1.00;;;;;;;;;;5013829;28;20224;-56
2022/09/28 00:47:39;;;;;;;1.10;1.10;;;;;;;;;;4983062;28;20236;-56
2022/09/28 00:50:24;;;;;;;1.00;1.00;;;;;;;;;;4995721;28;20220;-55
2022/09/28 00:52:53;;;;;;;1.13;1.13;;;;;;;;;;5017754;28;20311;-55
2022/09/28 00:55:20;;;;;;;1.10;1.10;;;;;;;;;;4997389;28;21737;-55
2022/09/28 00:57:50;;;;;;;1.10;1.10;;;;;;;;;;5006804;28;20625;-55
2022/09/28 01:00:16;;;;;;;1.10;1.10;;;;;;;;;;5005048;28;20235;-55
2022/09/28 01:02:42;;;;;;;1.20;1.20;;;;;;;;;;5018977;28;20223;-56
2022/09/28 01:05:09;;;;;;;1.10;1.10;;;;;;;;;;5005159;28;20224;-55
2022/09/28 01:07:35;;;;;;;1.17;1.17;;;;;;;;;;4998217;28;20232;-56
2022/09/28 01:10:01;;;;;;;1.20;1.20;;;;;;;;;;5009231;28;20714;-56
2022/09/28 01:12:27;;;;;;;1.20;1.20;;;;;;;;;;5018373;28;20302;-55
2022/09/28 01:14:53;;;;;;;1.10;1.10;;;;;;;;;;5031949;28;20226;-55
2022/09/28 01:17:23;;;;;;;1.07;1.07;;;;;;;;;;5024351;28;20339;-56
2022/09/28 01:20:04;;;;;;;1.10;1.10;;;;;;;;;;5022243;28;20694;-56
2022/09/28 01:22:30;;;;;;;1.00;1.00;;;;;;;;;;5030161;28;20228;-55
2022/09/28 01:25:02;;;;;;;1.03;1.03;;;;;;;;;;5008411;28;20212;-55
2022/09/28 01:27:48;;;;;;;1.00;1.00;;;;;;;;;;5003371;28;20371;-56
2022/09/28 01:30:15;;;;;;;1.10;1.10;;;;;;;;;;5019983;28;20235;-55
2022/09/28 01:32:45;;;;;;;1.10;1.10;;;;;;;;;;4985278;28;20705;-55
2022/09/28 01:35:14;;;;;;;1.20;1.20;;;;;;;;;;5007079;28;20254;-55
2022/09/28 01:37:47;;;;;;;1.20;1.20;;;;;;;;;;5028379;28;20264;-55
2022/09/28 01:40:13;;;;;;;1.40;1.40;;;;;;;;;;5021553;28;20236;-55
2022/09/28 01:42:39;;;;;;;1.30;1.30;;;;;;;;;;5015505;28;20223;-55
2022/09/28 01:45:06;;;;;;;1.30;1.30;;;;;;;;;;5002577;28;20597;-55
2022/09/28 01:47:33;;;;;;;1.30;1.30;;;;;;;;;;4996133;28;26598;-56
2022/09/28 01:50:00;;;;;;;1.33;1.33;;;;;;;;;;5020400;28;20228;-55
2022/09/28 01:52:31;;;;;;;1.10;1.10;;;;;;;;;;5012329;28;20252;-55
2022/09/28 01:55:09;;;;;;;1.10;1.10;;;;;;;;;;5014828;28;20229;-55
2022/09/28 01:57:40;;;;;;;1.30;1.30;;;;;;;;;;4996381;28;20633;-56
2022/09/28 02:00:07;;;;;;;1.30;1.30;;;;;;;;;;4983497;28;20244;-56
2022/09/28 02:05:37;;;;;;;1.40;1.40;;;;;;;;;;4995555;28;20363;-55
2022/09/28 02:08:09;;;;;;;1.30;1.30;;;;;;;;;;4996268;28;20240;-56
2022/09/28 02:10:38;;;;;;;1.30;1.30;;;;;;;;;;4977051;28;20816;-56
2022/09/28 02:13:40;;;;;;;1.47;1.47;;;;;;;;;;4992306;28;20325;-56
2022/09/28 02:16:06;;;;;;;1.30;1.30;;;;;;;;;;4918854;28;20230;-56
2022/09/28 02:18:32;;;;;;;1.40;1.40;;;;;;;;;;4988541;28;20246;-56
2022/09/28 02:21:06;;;;;;;1.30;1.30;;;;;;;;;;5013021;28;20223;-55
2022/09/28 02:23:33;;;;;;;1.37;1.37;;;;;;;;;;5007371;28;20775;-56
2022/09/28 02:26:01;;;;;;;1.30;1.30;;;;;;;;;;5010690;28;20773;-55
2022/09/28 02:28:27;;;;;;;1.40;1.40;;;;;;;;;;5013556;28;20215;-55
2022/09/28 02:30:52;;;;;;;1.30;1.30;;;;;;;;;;5007506;28;20366;-56
2022/09/28 02:33:37;;;;;;;1.10;1.10;;;;;;;;;;4998042;28;20227;-55
2022/09/28 02:36:03;;;;;;;1.20;1.20;;;;;;;;;;5005225;28;20713;-56
2022/09/28 02:38:30;;;;;;;1.20;1.20;;;;;;;;;;5017669;28;20235;-55
2022/09/28 02:40:58;;;;;;;1.10;1.10;;;;;;;;;;5022229;28;20259;-56
2022/09/28 02:43:24;;;;;;;1.40;1.40;;;;;;;;;;4989069;28;20266;-55
2022/09/28 02:46:01;;;;;;;1.40;1.40;;;;;;;;;;5012421;28;20621;-56
2022/09/28 02:48:39;;;;;;;1.37;1.37;;;;;;;;;;4996674;28;20594;-56
2022/09/28 02:51:15;;;;;;;1.50;1.50;;;;;;;;;;5026671;28;20574;-56
2022/09/28 02:53:59;;;;;;;1.50;1.50;;;;;;;;;;5007182;28;20309;-55
2022/09/28 02:56:41;;;;;;;1.30;1.30;;;;;;;;;;5016845;28;20238;-56
2022/09/28 02:59:13;;;;;;;1.47;1.47;;;;;;;;;;5011210;28;20227;-56
2022/09/28 03:01:58;;;;;;;1.20;1.20;;;;;;;;;;5012121;28;20724;-55
2022/09/28 03:04:32;;;;;;;1.40;1.40;;;;;;;;;;5009729;28;20624;-55
2022/09/28 03:07:06;;;;;;;1.20;1.20;;;;;;;;;;5005635;28;20223;-56
2022/09/28 03:09:52;;;;;;;1.27;1.27;;;;;;;;;;4991864;28;20223;-56
2022/09/28 03:12:18;;;;;;;1.43;1.43;;;;;;;;;;4999036;28;20241;-56
2022/09/28 03:14:44;;;;;;;1.40;1.40;;;;;;;;;;4992567;28;21582;-55
2022/09/28 03:17:10;;;;;;;1.30;1.30;;;;;;;;;;5024367;28;20302;-55
2022/09/28 03:19:36;;;;;;;1.30;1.30;;;;;;;;;;5030893;28;20227;-56
2022/09/28 03:22:02;;;;;;;1.63;1.63;;;;;;;;;;5035832;27;20224;-56
2022/09/28 03:24:28;;;;;;;1.63;1.63;;;;;;;;;;5025281;28;20707;-56
2022/09/28 03:26:54;;;;;;;1.77;1.70;;;;;;;;;;5021294;28;20236;-55
2022/09/28 03:29:20;;;;;;;1.70;1.70;;;;;;;;;;5015129;28;20230;-56
2022/09/28 03:31:47;;;;;;;1.40;1.40;;;;;;;;;;5017898;28;20597;-56
2022/09/28 03:34:13;;;;;;;1.40;1.40;;;;;;;;;;5012506;28;20263;-56
2022/09/28 03:36:39;;;;;;;1.50;1.50;;;;;;;;;;5013401;28;25352;-56
2022/09/28 03:39:05;;;;;;;1.40;1.40;;;;;;;;;;5007177;28;20324;-56
2022/09/28 03:41:31;;;;;;;1.20;1.20;;;;;;;;;;5016635;28;20716;-55
2022/09/28 03:43:57;;;;;;;1.40;1.40;;;;;;;;;;5013255;28;20669;-56
2022/09/28 03:46:23;;;;;;;1.60;1.60;;;;;;;;;;4990534;28;20251;-55
2022/09/28 03:48:48;;;;;;;1.50;1.50;;;;;;;;;;4981961;28;20232;-55
2022/09/28 03:51:14;;;;;;;1.60;1.60;;;;;;;;;;5014244;28;20309;-56
2022/09/28 03:53:40;;;;;;;1.20;1.20;;;;;;;;;;5011200;28;20243;-56
2022/09/28 03:56:08;;;;;;;1.30;1.30;;;;;;;;;;5003848;28;20652;-56
2022/09/28 03:58:34;;;;;;;1.40;1.40;;;;;;;;;;4990039;28;20228;-55
2022/09/28 04:01:03;;;;;;;1.50;1.50;;;;;;;;;;4994471;28;20231;-55
2022/09/28 04:03:30;;;;;;;1.50;1.50;;;;;;;;;;4990774;28;20231;-56
2022/09/28 04:05:55;;;;;;;1.50;1.50;;;;;;;;;;4994652;28;21262;-55
2022/09/28 04:08:21;;;;;;;1.40;1.40;;;;;;;;;;5000512;28;20382;-56
2022/09/28 04:10:47;;;;;;;1.30;1.30;;;;;;;;;;5005255;28;20605;-56
2022/09/28 04:13:13;;;;;;;1.50;1.50;;;;;;;;;;4991745;28;20784;-56
2022/09/28 04:15:39;;;;;;;1.57;1.57;;;;;;;;;;4991497;28;20886;-55
2022/09/28 04:18:09;;;;;;;1.40;1.40;;;;;;;;;;4980854;28;20252;-56
2022/09/28 04:20:35;;;;;;;1.50;1.50;;;;;;;;;;4969242;28;20317;-55
2022/09/28 04:23:01;;;;;;;1.40;1.40;;;;;;;;;;4970076;28;20225;-56
2022/09/28 04:25:27;;;;;;;1.30;1.30;;;;;;;;;;4965195;28;20225;-56
2022/09/28 04:30:38;;;;;;;1.47;1.47;;;;;;;;;;4987943;28;20254;-56
2022/09/28 04:33:04;;;;;;;1.20;1.20;;;;;;;;;;4996568;28;20287;-56
2022/09/28 04:35:30;;;;;;;1.40;1.40;;;;;;;;;;4997644;28;20252;-56
2022/09/28 04:37:56;;;;;;;1.13;1.13;;;;;;;;;;4988684;28;20265;-56
2022/09/28 04:40:22;;;;;;;1.40;1.40;;;;;;;;;;4997696;28;20376;-56
2022/09/28 04:42:54;;;;;;;1.40;1.40;;;;;;;;;;5012806;28;20587;-55
2022/09/28 04:45:20;;;;;;;1.30;1.30;;;;;;;;;;4987299;28;20544;-55
2022/09/28 04:47:46;;;;;;;1.60;1.60;;;;;;;;;;4998118;28;20211;-56
2022/09/28 04:50:12;;;;;;;1.40;1.40;;;;;;;;;;5008498;28;20232;-56
2022/09/28 04:52:38;;;;;;;1.40;1.40;;;;;;;;;;4985474;28;20244;-56
2022/09/28 04:55:05;;;;;;;1.40;1.40;;;;;;;;;;5004136;28;20220;-56
2022/09/28 04:57:33;;;;;;;1.40;1.40;;;;;;;;;;4996104;28;20276;-56
2022/09/28 04:59:59;;;;;;;1.77;1.70;;;;;;;;;;4968970;28;20256;-56
2022/09/28 05:02:26;;;;;;;1.60;1.60;;;;;;;;;;4973058;28;20228;-55
2022/09/28 05:04:54;;;;;;;1.70;1.70;;;;;;;;;;4983888;28;20239;-55
2022/09/28 05:07:20;;;;;;;1.73;1.67;;;;;;;;;;4993476;28;20251;-55
2022/09/28 05:09:46;;;;;;;1.60;1.60;;;;;;;;;;5014672;28;20283;-55
2022/09/28 05:12:11;;;;;;;1.80;1.70;;;;;;;;;;4990894;28;20254;-56
2022/09/28 05:14:37;;;;;;;1.40;1.40;;;;;;;;;;4977446;28;20218;-56
2022/09/28 05:17:03;;;;;;;1.50;1.50;;;;;;;;;;5020099;28;20280;-56
2022/09/28 05:19:29;;;;;;;1.40;1.40;;;;;;;;;;5004480;28;20248;-56
2022/09/28 05:21:56;;;;;;;1.40;1.40;;;;;;;;;;5014829;28;20346;-57
2022/09/28 05:24:23;;;;;;;1.40;1.40;;;;;;;;;;5010546;28;20260;-56
2022/09/28 05:26:49;;;;;;;1.47;1.47;;;;;;;;;;5014747;28;20233;-56
2022/09/28 05:29:15;;;;;;;1.43;1.43;;;;;;;;;;5015663;28;20220;-56
2022/09/28 05:31:41;;;;;;;1.47;1.47;;;;;;;;;;5014487;28;20224;-56
2022/09/28 05:34:06;;;;;;;1.40;1.40;;;;;;;;;;5024802;28;20279;-56
2022/09/28 05:36:34;;;;;;;1.40;1.40;;;;;;;;;;5030719;28;20259;-56
2022/09/28 05:39:02;;;;;;;1.17;1.17;;;;;;;;;;5047072;28;20853;-56
2022/09/28 05:41:28;;;;;;;1.50;1.50;;;;;;;;;;5035390;28;20229;-56
2022/09/28 05:43:54;;;;;;;1.40;1.40;;;;;;;;;;5044761;28;20240;-56
2022/09/28 05:46:22;;;;;;;1.20;1.20;;;;;;;;;;5045494;28;20224;-56
2022/09/28 05:48:48;;;;;;;1.37;1.37;;;;;;;;;;5047625;28;20301;-56
2022/09/28 05:51:14;;;;;;;1.37;1.37;;;;;;;;;;5043842;28;20219;-56
2022/09/28 05:53:40;;;;;;;1.20;1.20;;;;;;;;;;5037672;28;20224;-56
2022/09/28 05:56:06;;;;;;;1.40;1.40;;;;;;;;;;5023749;28;20220;-56
2022/09/28 05:58:32;;;;;;;1.50;1.50;;;;;;;;;;5029665;28;20245;-56
2022/09/28 06:00:58;;;;;;;1.40;1.40;;;;;;;;;;5033947;28;20720;-56
2022/09/28 06:03:24;;;;;;;1.50;1.50;;;;;;;;;;5021642;28;20226;-57
2022/09/28 06:05:50;;;;;;;1.40;1.40;;;;;;;;;;5042986;28;20224;-57
2022/09/28 06:08:16;;;;;;;1.40;1.40;;;;;;;;;;5029293;28;21221;-57
2022/09/28 06:10:42;;;;;;;1.40;1.40;;;;;;;;;;5036337;28;20220;-57
2022/09/28 06:13:09;;;;;;;1.40;1.40;;;;;;;;;;5038089;28;20222;-57
2022/09/28 06:15:35;;;;;;;1.30;1.30;;;;;;;;;;5022290;28;20273;-57
2022/09/28 06:18:13;;;;;;;1.20;1.20;;;;;;;;;;5037394;28;20212;-57
2022/09/28 06:20:41;;;;;;;1.20;1.20;;;;;;;;;;5035895;28;20812;-57
2022/09/28 06:23:08;;;;;;;1.30;1.30;;;;;;;;;;5033191;28;20279;-57
2022/09/28 06:25:34;;;;;;;1.20;1.20;;;;;;;;;;5035150;28;20243;-57
2022/09/28 06:28:01;;;;;;;1.20;1.20;;;;;;;;;;5037483;28;20307;-57
2022/09/28 06:30:27;;;;;;;1.30;1.30;;;;;;;;;;5041614;28;20589;-57
2022/09/28 06:32:57;;;;;;;1.40;1.40;;;;;;;;;;5037954;28;20310;-58
2022/09/28 06:35:24;;;;;;;1.30;1.30;;;;;;;;;;5029391;28;20221;-56
2022/09/28 06:37:50;;;;;;;1.20;1.20;;;;;;;;;;5031932;28;20271;-57
2022/09/28 06:40:16;;;;;;;1.40;1.40;;;;;;;;;;5043514;28;20303;-58
2022/09/28 06:42:42;;;;;;;1.30;1.30;;;;;;;;;;5019969;28;20623;-56
2022/09/28 06:45:09;;;;;;;1.40;1.40;;;;;;;;;;5033022;28;20241;-56
2022/09/28 06:47:36;;;;;;;1.20;1.20;;;;;;;;;;5029533;28;22513;-56
2022/09/28 06:50:02;;;;;;;1.20;1.20;;;;;;;;;;5045166;28;21059;-56
2022/09/28 06:52:28;;;;;;;1.30;1.30;;;;;;;;;;5035517;28;20891;-56
2022/09/28 06:54:54;;;;;;;1.20;1.20;;;;;;;;;;5016216;28;20305;-56
2022/09/28 06:57:20;;;;;;;1.27;1.27;;;;;;;;;;5028366;28;20224;-56
2022/09/28 06:59:46;;;;;;;1.30;1.30;;;;;;;;;;5044440;28;20216;-57
2022/09/28 07:02:15;;;;;;;1.20;1.20;;;;;;;;;;5035202;28;20216;-57
2022/09/28 07:04:41;;;;;;;1.30;1.30;;;;;;;;;;5026491;28;20250;-56
2022/09/28 07:07:10;;;;;;;1.20;1.20;;;;;;;;;;5037143;28;20699;-56
2022/09/28 07:09:36;;;;;;;1.20;1.20;;;;;;;;;;5024484;28;20233;-57
2022/09/28 07:12:09;;;;;;;1.30;1.30;;;;;;;;;;5047187;28;20219;-56
2022/09/28 07:14:34;;;;;;;1.30;1.30;;;;;;;;;;5033935;28;20369;-57
2022/09/28 07:17:02;;;;;;;1.30;1.30;;;;;;;;;;5035606;28;20663;-56
2022/09/28 07:19:28;;;;;;;1.27;1.27;;;;;;;;;;5029457;28;20216;-56
2022/09/28 07:21:54;;;;;;;1.40;1.40;;;;;;;;;;5032271;28;20240;-56
2022/09/28 07:24:20;;;;;;;1.40;1.40;;;;;;;;;;5025698;28;20637;-57
2022/09/28 07:26:46;;;;;;;1.27;1.27;;;;;;;;;;5017727;28;20287;-56
2022/09/28 07:29:12;;;;;;;1.33;1.33;;;;;;;;;;5036833;28;20600;-56
2022/09/28 07:31:38;;;;;;;1.67;1.67;;;;;;;;;;5035178;28;20234;-57
2022/09/28 07:34:04;;;;;;;1.30;1.30;;;;;;;;;;5040511;28;20584;-56
2022/09/28 07:36:33;;;;;;;1.40;1.40;;;;;;;;;;5038523;28;20230;-56
2022/09/28 07:39:00;;;;;;;1.30;1.30;;;;;;;;;;5039611;28;20259;-56
2022/09/28 07:41:31;;;;;;;1.20;1.20;;;;;;;;;;5035443;28;20322;-56
2022/09/28 07:44:04;;;;;;;1.20;1.20;;;;;;;;;;5043442;28;20584;-57
2022/09/28 07:46:30;;;;;;;1.20;1.20;;;;;;;;;;5037803;28;20303;-56
2022/09/28 07:48:57;;;;;;;1.00;1.00;;;;;;;;;;5034164;28;20238;-56
2022/09/28 07:51:22;;;;;;;1.13;1.13;;;;;;;;;;5047184;28;20729;-56
2022/09/28 07:53:48;;;;;;;1.20;1.20;;;;;;;;;;5040837;28;20227;-56
2022/09/28 07:56:18;;;;;;;1.10;1.10;;;;;;;;;;5048754;28;20235;-58
2022/09/28 07:58:44;;;;;;;1.40;1.40;;;;;;;;;;5010684;28;20237;-58
2022/09/28 08:01:10;;;;;;;1.40;1.40;;;;;;;;;;5012105;28;20231;-58
2022/09/28 08:03:36;;;;;;;1.10;1.10;;;;;;;;;;5036571;28;20230;-58
2022/09/28 08:06:06;;;;;;;1.20;1.20;;;;;;;;;;5031642;28;20231;-58
2022/09/28 08:08:36;;;;;;;1.30;1.30;;;;;;;;;;5046180;28;20771;-58
2022/09/28 08:11:02;;;;;;;1.10;1.10;;;;;;;;;;5024867;28;20228;-57
2022/09/28 08:13:29;;;;;;;1.00;1.00;;;;;;;;;;5024564;28;20278;-58
2022/09/28 08:15:59;;;;;;;1.07;1.07;;;;;;;;;;5029486;28;20697;-58
2022/09/28 08:18:25;;;;;;;1.10;1.10;;;;;;;;;;5049833;28;20272;-58
2022/09/28 08:23:37;;;;;;;1.10;1.10;;;;;;;;;;5043990;28;20231;-58
2022/09/28 08:26:03;;;;;;;0.90;0.90;;;;;;;;;;5033017;28;20225;-58
2022/09/28 08:28:29;;;;;;;1.10;1.10;;;;;;;;;;5004274;28;20224;-58
2022/09/28 08:30:55;;;;;;;0.90;0.90;;;;;;;;;;5038164;28;20251;-58
2022/09/28 08:33:21;;;;;;;1.40;1.40;;;;;;;;;;5032951;28;20273;-58
2022/09/28 08:35:47;;;;;;;1.40;1.40;;;;;;;;;;5040654;28;20319;-58
2022/09/28 08:38:13;;;;;;;1.13;1.13;;;;;;;;;;5027200;28;21638;-58
2022/09/28 08:40:48;;;;;;;0.90;0.90;;;;;;;;;;5040948;28;20215;-58
2022/09/28 08:43:19;;;;;;;1.13;1.13;;;;;;;;;;5047570;28;20240;-58
2022/09/28 08:45:45;;;;;;;1.30;1.30;;;;;;;;;;5028442;28;20212;-58
2022/09/28 08:51:16;;;;;;;0.90;0.90;;;;;;;;;;5014245;28;20688;-58
2022/09/28 08:53:45;;;;;;;1.00;1.00;;;;;;;;;;5022324;28;20219;-58
2022/09/28 08:56:15;;;;;;;1.00;1.00;;;;;;;;;;5012308;28;20223;-58
2022/09/28 08:58:41;;;;;;;1.10;1.10;;;;;;;;;;5032149;28;20863;-58
2022/09/28 09:01:08;;;;;;;1.20;1.20;;;;;;;;;;5036269;28;20590;-58
2022/09/28 09:03:43;;;;;;;1.03;1.03;;;;;;;;;;5026858;28;20758;-58
2022/09/28 09:06:17;;;;;;;1.00;1.00;;;;;;;;;;5042302;28;20224;-57
2022/09/28 09:08:51;;;;;;;1.10;1.10;;;;;;;;;;5019554;28;20718;-58
2022/09/28 09:11:37;;;;;;;1.13;1.13;;;;;;;;;;5024475;28;20236;-58
2022/09/28 09:14:07;;;;;;;1.13;1.13;;;;;;;;;;5037437;28;20235;-58
2022/09/28 09:16:54;;;;;;;1.10;1.10;;;;;;;;;;5045128;28;20569;-58
2022/09/28 09:19:34;;;;;;;1.27;1.27;;;;;;;;;;5030717;28;20753;-58
2022/09/28 09:22:08;;;;;;;1.40;1.40;;;;;;;;;;5035022;28;20258;-58
2022/09/28 09:24:34;;;;;;;1.30;1.30;;;;;;;;;;5027487;28;20242;-58
2022/09/28 09:27:04;;;;;;;1.20;1.20;;;;;;;;;;5041810;28;20327;-58
2022/09/28 09:29:43;;;;;;;1.20;1.20;;;;;;;;;;5034020;28;20234;-58
2022/09/28 09:32:31;;;;;;;1.00;1.00;;;;;;;;;;5033138;28;20595;-58
2022/09/28 09:35:00;;;;;;;1.30;1.30;;;;;;;;;;5028193;28;20282;-57
2022/09/28 09:37:33;;;;;;;1.20;1.20;;;;;;;;;;5045706;28;20247;-58
2022/09/28 09:40:06;;;;;;;1.10;1.10;;;;;;;;;;5027655;28;20696;-58
2022/09/28 09:43:11;;;;;;;1.30;1.30;;;;;;;;;;5010402;28;20622;-58
2022/09/28 09:45:47;;;;;;;1.37;1.37;;;;;;;;;;5022632;28;21020;-58
2022/09/28 09:48:15;;;;;;;1.33;1.33;;;;;;;;;;5008727;28;20906;-58
2022/09/28 09:50:48;;;;;;;1.20;1.20;;;;;;;;;;5035511;28;20717;-58
2022/09/28 09:53:32;;;;;;;1.50;1.50;;;;;;;;;;5036281;28;20243;-58
2022/09/28 09:56:17;;;;;;;1.40;1.40;;;;;;;;;;5037394;28;20259;-58
2022/09/28 09:58:45;;;;;;;1.30;1.30;;;;;;;;;;5030961;28;20595;-58
2022/09/28 10:01:12;;;;;;;2.10;2.00;;;;;;;;;;5035216;28;21150;-58
2022/09/28 10:03:39;;;;;;;1.00;1.00;;;;;;;;;;5018257;28;20718;-59
2022/09/28 10:06:06;;;;;;;3.37;3.27;;;;;;;;;;5034054;28;20579;-59
2022/09/28 10:08:34;;;;;;;1.80;1.70;;;;;;;;;;5018298;28;20244;-59
2022/09/28 10:11:16;;;;;;;1.50;1.50;;;;;;;;;;5015769;28;20226;-59
2022/09/28 10:13:43;;;;;;;1.23;1.23;;;;;;;;;;5019259;28;20248;-59
2022/09/28 10:16:09;;;;;;;1.23;1.23;;;;;;;;;;5038295;28;20237;-59
2022/09/28 10:18:35;;;;;;;1.00;1.00;;;;;;;;;;5035541;28;20227;-59
2022/09/28 10:21:01;;;;;;;1.10;1.10;;;;;;;;;;5007520;28;20262;-59
2022/09/28 10:23:28;;;;;;;1.40;1.40;;;;;;;;;;5029171;28;20220;-59
2022/09/28 10:25:56;;;;;;;1.25;1.25;;;;;;;;;;5032584;28;20656;-59
2022/09/28 10:28:43;;;;;;;1.10;1.10;;;;;;;;;;5018605;28;20223;-59
2022/09/28 10:31:33;;;;;;;1.80;1.70;;;;;;;;;;5034268;28;20326;-60
2022/09/28 10:33:58;;;;;;;1.00;1.00;;;;;;;;;;5020958;28;20538;-59
2022/09/28 10:36:25;;;;;;;1.50;1.50;;;;;;;;;;5039121;28;20510;-60
2022/09/28 10:38:52;;;;;;;1.00;1.00;;;;;;;;;;5035257;28;20241;-60
2022/09/28 10:41:19;;;;;;;1.20;1.20;;;;;;;;;;5034028;28;20249;-61
2022/09/28 10:44:04;;;;;;;1.00;1.00;;;;;;;;;;5045364;28;20790;-61
2022/09/28 10:46:30;;;;;;;0.93;0.93;;;;;;;;;;5036488;28;20782;-60
2022/09/28 10:49:15;;;;;;;1.00;1.00;;;;;;;;;;5025972;28;20734;-61
2022/09/28 10:51:52;;;;;;;0.93;0.93;;;;;;;;;;5035445;28;20782;-60
2022/09/28 10:54:25;;;;;;;0.90;0.90;;;;;;;;;;5037942;28;20582;-60
2022/09/28 10:56:51;;;;;;;0.90;0.90;;;;;;;;;;5034508;28;20243;-61
2022/09/28 10:59:29;;;;;;;1.00;1.00;;;;;;;;;;5039992;28;20603;-60
2022/09/28 11:01:56;;;;;;;1.40;1.40;;;;;;;;;;5035139;28;20322;-60
2022/09/28 11:04:23;;;;;;;1.20;1.20;;;;;;;;;;5021022;28;20223;-60
2022/09/28 11:06:50;;;;;;;1.30;1.30;;;;;;;;;;5046854;28;20710;-60
2022/09/28 11:09:29;;;;;;;1.33;1.33;;;;;;;;;;5035821;28;20315;-59
2022/09/28 11:11:54;;;;;;;1.48;1.48;;;;;;;;;;5032096;28;20601;-60
2022/09/28 11:14:34;;;;;;;1.30;1.30;;;;;;;;;;5040382;28;20213;-59
2022/09/28 11:17:15;;;;;;;1.40;1.40;;;;;;;;;;5037161;28;20221;-59
2022/09/28 11:19:42;;;;;;;1.42;1.42;;;;;;;;;;5030523;28;20238;-59
2022/09/28 11:22:27;;;;;;;1.30;1.30;;;;;;;;;;5031177;28;20235;-59
2022/09/28 11:25:11;;;;;;;1.30;1.30;;;;;;;;;;5035382;28;20257;-58
2022/09/28 11:27:37;;;;;;;1.40;1.40;;;;;;;;;;5030420;28;20302;-59
2022/09/28 11:30:03;;;;;;;1.30;1.30;;;;;;;;;;5032869;28;20295;-59
2022/09/28 11:32:31;;;;;;;1.40;1.40;;;;;;;;;;5036290;28;20696;-59
2022/09/28 11:34:58;;;;;;;1.50;1.50;;;;;;;;;;5028569;28;20273;-59
2022/09/28 11:37:34;;;;;;;1.50;1.50;;;;;;;;;;5028511;28;20267;-58
2022/09/28 11:40:13;;;;;;;1.33;1.33;;;;;;;;;;5015521;28;20315;-59
2022/09/28 11:42:48;;;;;;;1.30;1.30;;;;;;;;;;5039826;28;20238;-59
2022/09/28 11:45:21;;;;;;;1.45;1.45;;;;;;;;;;5035283;28;20250;-59
2022/09/28 11:47:52;;;;;;;1.30;1.30;;;;;;;;;;5043753;28;20224;-58
2022/09/28 11:50:36;;;;;;;1.40;1.40;;;;;;;;;;5019046;28;20232;-59
2022/09/28 11:53:11;;;;;;;1.90;1.80;;;;;;;;;;5033284;28;20842;-58
2022/09/28 11:55:42;;;;;;;1.50;1.50;;;;;;;;;;5020371;28;20311;-59
2022/09/28 11:58:12;;;;;;;1.60;1.60;;;;;;;;;;5019245;28;20255;-58
2022/09/28 12:00:40;;;;;;;1.63;1.63;;;;;;;;;;5010533;28;20243;-58
2022/09/28 12:03:08;;;;;;;1.50;1.50;;;;;;;;;;5039309;28;20231;-56
2022/09/28 12:05:38;;;;;;;1.60;1.60;;;;;;;;;;5014385;28;20237;-58
2022/09/28 12:08:08;;;;;;;1.55;1.55;;;;;;;;;;5028136;28;20256;-58
2022/09/28 12:10:35;;;;;;;1.60;1.60;;;;;;;;;;5014025;28;20305;-58
2022/09/28 12:13:11;;;;;;;1.63;1.63;;;;;;;;;;5037632;28;21276;-58
2022/09/28 12:15:40;;;;;;;1.50;1.50;;;;;;;;;;5022816;28;20215;-58
2022/09/28 12:18:07;;;;;;;1.50;1.50;;;;;;;;;;4996298;28;20566;-58
2022/09/28 12:20:34;;;;;;;1.80;1.70;;;;;;;;;;5009850;28;26334;-58
2022/09/28 12:23:01;;;;;;;1.50;1.50;;;;;;;;;;5018690;28;20228;-58
2022/09/28 12:25:28;;;;;;;1.70;1.70;;;;;;;;;;5019647;28;20287;-58
2022/09/28 12:27:59;;;;;;;1.40;1.40;;;;;;;;;;5033284;28;20250;-58
2022/09/28 12:30:25;;;;;;;1.57;1.57;;;;;;;;;;5026860;28;20637;-58
2022/09/28 12:33:04;;;;;;;1.50;1.50;;;;;;;;;;5019358;28;20686;-58
2022/09/28 12:35:45;;;;;;;1.33;1.33;;;;;;;;;;5012125;28;20233;-58
2022/09/28 12:38:14;;;;;;;1.40;1.40;;;;;;;;;;5021035;28;20239;-58
2022/09/28 12:41:04;;;;;;;1.40;1.40;;;;;;;;;;5031083;28;20683;-58
2022/09/28 12:43:39;;;;;;;1.63;1.63;;;;;;;;;;5016007;28;20238;-58
2022/09/28 12:46:13;;;;;;;1.50;1.50;;;;;;;;;;5021390;28;20243;-58
2022/09/28 12:48:39;;;;;;;2.00;1.90;;;;;;;;;;5016920;28;20738;-58
2022/09/28 12:51:14;;;;;;;1.60;1.60;;;;;;;;;;5050154;28;20255;-58
2022/09/28 12:53:49;;;;;;;1.40;1.40;;;;;;;;;;5024673;28;20224;-58
2022/09/28 12:56:24;;;;;;;1.60;1.60;;;;;;;;;;5047745;28;20215;-57
2022/09/28 12:58:59;;;;;;;1.60;1.60;;;;;;;;;;5003794;28;20228;-58
2022/09/28 13:01:35;;;;;;;1.50;1.50;;;;;;;;;;5028048;28;20238;-58
2022/09/28 13:04:19;;;;;;;1.70;1.70;;;;;;;;;;5031873;28;20252;-57
2022/09/28 13:07:04;;;;;;;1.60;1.60;;;;;;;;;;5037595;28;20226;-58
2022/09/28 13:09:56;;;;;;;1.30;1.30;;;;;;;;;;5025605;28;20223;-58
2022/09/28 13:12:24;;;;;;;1.50;1.50;;;;;;;;;;4995533;28;20281;-58
2022/09/28 13:14:53;;;;;;;1.27;1.27;;;;;;;;;;5031521;28;20224;-58
2022/09/28 13:17:38;;;;;;;1.30;1.30;;;;;;;;;;5022536;28;20293;-58
2022/09/28 13:20:22;;;;;;;1.40;1.40;;;;;;;;;;5032556;28;20219;-58
2022/09/28 13:22:55;;;;;;;1.40;1.40;;;;;;;;;;5021202;28;20289;-58
2022/09/28 13:25:21;;;;;;;1.50;1.50;;;;;;;;;;5012671;28;20616;-58
2022/09/28 13:28:03;;;;;;;1.30;1.30;;;;;;;;;;5031945;28;20235;-58
2022/09/28 13:30:30;;;;;;;1.30;1.30;;;;;;;;;;5031108;28;20277;-58
2022/09/28 13:32:56;;;;;;;1.30;1.30;;;;;;;;;;5036375;28;20414;-58
2022/09/28 13:35:22;;;;;;;1.30;1.30;;;;;;;;;;5005826;28;20219;-58
2022/09/28 13:37:55;;;;;;;1.77;1.70;;;;;;;;;;5024606;28;20236;-59
2022/09/28 13:40:29;;;;;;;1.40;1.40;;;;;;;;;;5004804;28;21911;-59
2022/09/28 13:43:00;;;;;;;1.50;1.50;;;;;;;;;;5002610;28;20248;-58
2022/09/28 13:45:34;;;;;;;1.30;1.30;;;;;;;;;;4973717;28;20217;-59
2022/09/28 13:48:19;;;;;;;1.40;1.40;;;;;;;;;;5012100;28;20601;-58
2022/09/28 13:50:58;;;;;;;1.30;1.30;;;;;;;;;;5015346;28;20315;-58
2022/09/28 13:53:41;;;;;;;1.30;1.30;;;;;;;;;;5020134;28;20260;-57
2022/09/28 13:56:10;;;;;;;1.30;1.30;;;;;;;;;;5005918;28;20273;-57
2022/09/28 13:58:38;;;;;;;1.40;1.40;;;;;;;;;;5020506;28;20234;-57
2022/09/28 14:01:09;;;;;;;1.30;1.30;;;;;;;;;;5009827;28;20290;-57
2022/09/28 14:03:53;;;;;;;1.50;1.50;;;;;;;;;;5013945;28;20947;-57
2022/09/28 14:06:19;;;;;;;1.50;1.50;;;;;;;;;;5012650;28;21482;-56
2022/09/28 14:09:04;;;;;;;1.30;1.30;;;;;;;;;;5025441;28;20238;-56
2022/09/28 14:11:36;;;;;;;1.50;1.50;;;;;;;;;;5000166;28;20566;-57
2022/09/28 14:14:06;;;;;;;1.40;1.40;;;;;;;;;;5015532;28;20224;-57
2022/09/28 14:16:32;;;;;;;1.30;1.30;;;;;;;;;;5018742;28;20354;-57
2022/09/28 14:19:01;;;;;;;1.40;1.40;;;;;;;;;;5020429;28;20217;-57
2022/09/28 14:21:44;;;;;;;1.30;1.30;;;;;;;;;;5003476;28;20770;-57
2022/09/28 14:24:22;;;;;;;1.40;1.40;;;;;;;;;;4999063;28;20245;-57
2022/09/28 14:27:07;;;;;;;1.40;1.40;;;;;;;;;;5023195;28;20255;-57
2022/09/28 14:29:34;;;;;;;1.30;1.30;;;;;;;;;;5025889;28;20232;-57
2022/09/28 14:32:23;;;;;;;1.40;1.40;;;;;;;;;;4998930;28;20227;-57
2022/09/28 14:34:56;;;;;;;1.50;1.50;;;;;;;;;;5016892;28;20239;-57
2022/09/28 14:43:23;;;;;;;1.30;1.30;;;;;;;;;;5042529;28;20830;-57
2022/09/28 14:45:51;;;;;;;1.20;1.20;;;;;;;;;;5036145;28;20735;-57
2022/09/28 14:48:19;;;;;;;1.20;1.20;;;;;;;;;;5038445;28;20227;-57
2022/09/28 14:50:46;;;;;;;1.20;1.20;;;;;;;;;;5003924;28;20217;-57
2022/09/28 14:53:13;;;;;;;1.10;1.10;;;;;;;;;;5007355;28;20773;-57
2022/09/28 14:55:48;;;;;;;1.40;1.40;;;;;;;;;;4999433;28;20337;-57
2022/09/28 14:58:21;;;;;;;1.13;1.13;;;;;;;;;;5023265;28;20254;-56
2022/09/28 15:00:47;;;;;;;1.27;1.27;;;;;;;;;;5022292;28;20890;-57
2022/09/28 15:03:13;;;;;;;1.20;1.20;;;;;;;;;;5031566;28;20291;-57
2022/09/28 15:05:42;;;;;;;1.10;1.10;;;;;;;;;;5024413;28;20264;-57
2022/09/28 15:08:08;;;;;;;1.10;1.10;;;;;;;;;;5017923;28;20232;-57
2022/09/28 15:10:35;;;;;;;1.20;1.20;;;;;;;;;;5003093;28;20579;-57
2022/09/28 15:13:02;;;;;;;1.10;1.10;;;;;;;;;;5002671;28;20231;-57
2022/09/28 15:15:35;;;;;;;1.30;1.30;;;;;;;;;;5010194;28;20251;-57
2022/09/28 15:18:20;;;;;;;1.30;1.30;;;;;;;;;;5029862;28;20231;-57